createdAt,value
2019-03-10T20:36:45.961Z,22.45
2019-03-10T20:37:45.978Z,22.49
2019-03-10T20:39:38.989Z,22.55
2019-03-10T20:40:38.962Z,22.60
2019-03-10T20:43:09.568Z,22.67
2019-03-10T20:44:09.573Z,22.62
2019-03-10T20:46:01.590Z,22.64
2019-03-10T20:47:01.603Z,22.64
2019-03-10T20:48:09.818Z,22.65
2019-03-10T20:49:09.856Z,22.68
2019-03-10T20:51:05.236Z,22.75
2019-03-10T20:52:04.046Z,22.68
2019-03-10T20:53:58.056Z,22.70
2019-03-10T20:54:58.074Z,22.64
2019-03-10T20:55:50.912Z,22.72
2019-03-10T20:56:50.901Z,22.70
2019-03-10T20:58:43.510Z,22.70
2019-03-10T20:59:43.531Z,22.80
2019-03-10T21:00:43.552Z,22.83
2019-03-10T21:01:43.573Z,22.82
2019-03-10T21:02:43.610Z,22.77
2019-03-10T21:03:43.615Z,22.83
2019-03-10T21:04:43.637Z,22.85
2019-03-10T21:05:43.660Z,22.83
2019-03-10T21:06:43.680Z,22.82
2019-03-10T21:07:43.704Z,22.90
2019-03-10T21:08:43.722Z,22.80
2019-03-10T21:09:43.742Z,22.85
2019-03-10T21:10:43.762Z,22.85
2019-03-10T21:15:15.617Z,22.83
2019-03-10T21:16:15.591Z,22.82
2019-03-10T21:18:08.577Z,22.79
2019-03-10T21:19:08.596Z,22.80
2019-03-10T21:21:01.524Z,22.83
2019-03-10T21:22:01.566Z,22.82
2019-03-10T21:23:55.473Z,22.80
2019-03-10T21:24:54.980Z,22.79
2019-03-10T21:25:55.005Z,22.77
2019-03-10T21:26:55.025Z,22.79
2019-03-10T21:27:55.043Z,22.76
2019-03-10T21:28:55.068Z,22.77
2019-03-10T21:29:55.090Z,22.79
2019-03-10T21:30:55.107Z,22.75
2019-03-10T21:31:55.127Z,22.67
2019-03-10T21:32:55.151Z,22.79
2019-03-10T21:34:00.146Z,22.70
2019-03-10T21:35:00.164Z,22.79
2019-03-10T21:36:52.034Z,23.04
2019-03-10T21:37:52.048Z,23.04
2019-03-10T21:39:45.014Z,23.31
2019-03-10T21:40:45.027Z,23.51
2019-03-10T21:42:36.962Z,23.66
2019-03-10T21:43:36.986Z,23.65
2019-03-10T21:45:29.902Z,24.15
2019-03-10T21:46:29.907Z,24.28
2019-03-10T21:48:22.860Z,24.83
2019-03-10T21:49:22.867Z,25.05
2019-03-10T21:51:11.269Z,25.05
2019-03-10T21:52:11.247Z,25.20
2019-03-10T21:53:16.484Z,25.27
2019-03-10T21:55:21.890Z,24.68
2019-03-10T21:56:21.904Z,24.47
2019-03-10T21:58:15.425Z,24.37
